Terminal Aerodrome Forecast
Issued by NWS El Paso, TX

Home | Current Version | Previous Version | Text Only | Print | Product List | Glossary On
Versions: 1 2 3 4 5 6 7 8 9 10 11 12 13 14 15 16
000
FTUS44 KEPZ 171100
TAFELP
TAF
KELP 171138Z 1712/1812 35007KT P6SM VCSH SCT005 BKN040
      TEMPO 1713/1715 3SM SHRA BKN025
     FM171900 09011KT P6SM VCSH SCT020 BKN040 OVC060
     FM180300 05010KT 5SM -SHRA SCT015 BKN025=

USA.gov is the U.S. government's official web portal to all federal, state and local government web resources and services.